createdAt,value
2022-09-29T00:00:43.504Z,2.60
2022-09-29T00:01:44.969Z,2.60
2022-09-29T00:02:46.337Z,2.73
2022-09-29T00:03:47.645Z,2.60
2022-09-29T00:04:49.015Z,2.70
2022-09-29T00:05:51.457Z,2.80
2022-09-29T00:06:52.788Z,2.50
2022-09-29T00:07:54.103Z,2.77
2022-09-29T00:08:55.379Z,2.77
2022-09-29T00:09:56.701Z,2.60
2022-09-29T00:10:58.044Z,2.90
2022-09-29T00:11:59.449Z,2.50
2022-09-29T00:13:00.726Z,2.80
2022-09-29T00:14:02.059Z,2.87
2022-09-29T00:15:03.817Z,2.77
2022-09-29T00:16:05.577Z,2.77
2022-09-29T00:17:06.895Z,2.70
2022-09-29T00:18:14.129Z,3.30
2022-09-29T00:19:16.293Z,2.57
2022-09-29T00:20:17.660Z,3.00
2022-09-29T00:21:22.199Z,2.80
2022-09-29T00:22:23.544Z,2.80
2022-09-29T00:23:25.399Z,2.50
2022-09-29T00:24:26.913Z,2.70
2022-09-29T00:25:28.267Z,2.70
2022-09-29T00:26:29.584Z,2.73
2022-09-29T00:27:30.857Z,3.00
2022-09-29T00:28:33.105Z,3.30
2022-09-29T00:29:34.454Z,2.90
2022-09-29T00:30:36.582Z,3.00
2022-09-29T00:31:37.957Z,2.77
2022-09-29T00:32:39.582Z,2.80
2022-09-29T00:33:40.945Z,3.60
2022-09-29T00:34:42.333Z,3.70
2022-09-29T00:35:43.613Z,2.93
2022-09-29T00:36:44.925Z,3.47
2022-09-29T00:37:46.704Z,3.67
2022-09-29T00:38:48.948Z,3.50
2022-09-29T00:39:50.776Z,3.60
2022-09-29T00:40:52.129Z,3.57
2022-09-29T00:41:53.477Z,4.13
2022-09-29T00:42:54.763Z,4.60
2022-09-29T00:44:04.399Z,4.33
2022-09-29T00:45:05.713Z,5.40
2022-09-29T00:46:07.227Z,5.87
2022-09-29T00:47:09.525Z,4.83
2022-09-29T00:48:13.327Z,5.03
2022-09-29T00:49:25.616Z,5.30
2022-09-29T00:50:30.509Z,5.30
2022-09-29T00:51:33.432Z,4.90
2022-09-29T00:52:37.513Z,5.10
2022-09-29T00:53:38.837Z,5.30
2022-09-29T00:54:42.721Z,5.20
2022-09-29T00:55:55.236Z,5.00
2022-09-29T00:56:56.928Z,5.13
2022-09-29T00:58:07.415Z,5.10
2022-09-29T00:59:12.075Z,4.93
2022-09-29T01:00:14.367Z,5.37
2022-09-29T01:01:15.720Z,4.93
2022-09-29T01:02:19.008Z,5.63
2022-09-29T01:03:22.614Z,5.47
2022-09-29T01:04:24.248Z,6.07
2022-09-29T01:05:29.474Z,5.50
2022-09-29T01:06:34.406Z,6.20
2022-09-29T01:07:35.960Z,7.30
2022-09-29T01:08:41.744Z,7.20
2022-09-29T01:09:43.342Z,7.57
2022-09-29T01:10:45.170Z,8.07
2022-09-29T01:11:47.607Z,8.03
2022-09-29T01:12:49.433Z,8.30
2022-09-29T01:13:52.231Z,7.67
2022-09-29T01:14:53.759Z,9.27
2022-09-29T01:15:55.037Z,9.07
2022-09-29T01:16:56.336Z,8.70
2022-09-29T01:17:57.791Z,8.97
2022-09-29T01:19:05.225Z,9.80
2022-09-29T01:20:13.184Z,9.53
2022-09-29T01:21:15.423Z,9.53
2022-09-29T01:22:22.850Z,9.53
2022-09-29T01:23:42.417Z,10.33
2022-09-29T01:24:43.706Z,9.00
2022-09-29T01:25:51.113Z,9.43
2022-09-29T01:27:04.653Z,9.77
2022-09-29T01:28:24.741Z,10.07
2022-09-29T01:29:33.094Z,9.73
2022-09-29T01:30:49.653Z,9.73
2022-09-29T01:31:51.002Z,9.43
2022-09-29T01:32:59.354Z,9.80
2022-09-29T01:34:06.780Z,9.07
2022-09-29T01:35:25.620Z,9.67
2022-09-29T01:36:32.686Z,9.40
2022-09-29T01:37:52.906Z,9.93
2022-09-29T01:38:54.270Z,9.20
2022-09-29T01:40:02.554Z,9.43
2022-09-29T01:41:07.769Z,9.53
2022-09-29T01:42:19.694Z,9.83
2022-09-29T01:43:25.610Z,9.83
2022-09-29T01:44:30.891Z,9.37
2022-09-29T01:45:33.599Z,9.43
2022-09-29T01:46:40.945Z,9.97
2022-09-29T01:47:44.508Z,10.70
2022-09-29T01:48:48.093Z,10.03
2022-09-29T01:49:57.788Z,10.33
2022-09-29T01:51:01.568Z,10.13
2022-09-29T01:52:08.574Z,10.83
2022-09-29T01:53:18.490Z,11.70
2022-09-29T01:54:22.654Z,11.00
2022-09-29T01:55:26.777Z,11.60
2022-09-29T01:56:32.140Z,10.87
2022-09-29T01:57:43.763Z,11.33
2022-09-29T01:58:48.091Z,11.47
2022-09-29T01:59:51.942Z,10.97
2022-09-29T02:00:55.098Z,10.73
2022-09-29T02:02:00.897Z,11.27
2022-09-29T02:03:05.416Z,12.03
2022-09-29T02:04:16.178Z,11.10
2022-09-29T02:05:20.494Z,11.63
2022-09-29T02:06:24.887Z,12.17
2022-09-29T02:07:28.265Z,11.20
2022-09-29T02:08:32.854Z,11.03
2022-09-29T02:09:38.169Z,11.73
2022-09-29T02:10:41.577Z,10.70
2022-09-29T02:11:42.912Z,11.20
2022-09-29T02:12:44.915Z,10.67
2022-09-29T02:13:52.034Z,10.57
2022-09-29T02:14:53.944Z,11.23
2022-09-29T02:15:56.362Z,10.27
2022-09-29T02:17:01.204Z,10.80
2022-09-29T02:18:07.073Z,10.43
2022-09-29T02:19:16.956Z,10.30
2022-09-29T02:20:18.716Z,10.03
2022-09-29T02:21:20.170Z,10.40
2022-09-29T02:22:21.705Z,9.70
2022-09-29T02:23:23.054Z,10.13
2022-09-29T02:24:24.793Z,10.00
2022-09-29T02:25:26.083Z,9.60
2022-09-29T02:26:29.999Z,10.17
2022-09-29T02:27:33.795Z,10.27
2022-09-29T02:28:35.106Z,11.80
2022-09-29T02:29:36.885Z,10.77
2022-09-29T02:30:38.157Z,10.60
2022-09-29T02:31:40.073Z,10.60
2022-09-29T02:32:41.464Z,10.50
2022-09-29T02:33:42.784Z,10.57
2022-09-29T02:34:46.169Z,10.07
2022-09-29T02:35:59.449Z,10.53
2022-09-29T02:37:21.860Z,10.90
2022-09-29T02:38:43.955Z,10.67
2022-09-29T02:40:01.904Z,10.67
2022-09-29T02:41:07.085Z,10.73
2022-09-29T02:42:20.590Z,10.83
2022-09-29T02:43:21.889Z,10.30
2022-09-29T02:44:23.157Z,10.87
2022-09-29T02:45:36.064Z,10.13
2022-09-29T02:46:50.145Z,10.90
2022-09-29T02:48:08.649Z,11.30
2022-09-29T02:49:27.062Z,10.40
2022-09-29T02:50:28.342Z,10.50
2022-09-29T02:51:34.322Z,10.63
2022-09-29T02:52:38.459Z,10.67
2022-09-29T02:53:39.713Z,11.27
2022-09-29T02:54:45.958Z,10.63
2022-09-29T02:55:57.299Z,10.70
2022-09-29T02:56:58.585Z,10.67
2022-09-29T02:58:04.822Z,11.00
2022-09-29T02:59:06.125Z,10.40
2022-09-29T03:00:10.681Z,9.90
2022-09-29T03:01:12.360Z,10.63
2022-09-29T03:02:16.299Z,10.67
2022-09-29T03:03:17.605Z,10.37
2022-09-29T03:04:19.890Z,9.43
2022-09-29T03:05:22.501Z,9.63
2022-09-29T03:06:23.908Z,9.67
2022-09-29T03:07:25.290Z,9.10
2022-09-29T03:08:26.605Z,8.97
2022-09-29T03:09:28.346Z,9.27
2022-09-29T03:10:30.501Z,9.53
2022-09-29T03:11:31.932Z,8.73
2022-09-29T03:12:33.751Z,9.13
2022-09-29T03:13:35.056Z,9.07
2022-09-29T03:14:36.349Z,8.43
2022-09-29T03:15:37.672Z,9.00
2022-09-29T03:16:39.491Z,7.83
2022-09-29T03:17:40.987Z,8.10
2022-09-29T03:18:42.356Z,7.93
2022-09-29T03:19:43.713Z,8.47
2022-09-29T03:20:45.152Z,7.50
2022-09-29T03:21:47.798Z,8.17
2022-09-29T03:22:49.067Z,7.33
2022-09-29T03:23:53.132Z,7.50
2022-09-29T03:24:58.161Z,7.27
2022-09-29T03:25:59.448Z,8.63
2022-09-29T03:27:00.778Z,7.17
2022-09-29T03:28:02.073Z,7.37
2022-09-29T03:29:03.402Z,7.77
2022-09-29T03:30:05.030Z,7.57
2022-09-29T03:31:07.759Z,7.07
2022-09-29T03:32:09.301Z,7.03
2022-09-29T03:33:10.914Z,7.27
2022-09-29T03:34:12.240Z,7.43
2022-09-29T03:35:13.633Z,7.27
2022-09-29T03:36:14.951Z,6.97
2022-09-29T03:37:16.315Z,7.30
2022-09-29T03:38:17.601Z,7.03
2022-09-29T03:39:18.932Z,6.43
2022-09-29T03:40:20.268Z,6.87
2022-09-29T03:41:21.613Z,6.93
2022-09-29T03:42:24.194Z,7.23
2022-09-29T03:43:25.481Z,6.87
2022-09-29T03:44:26.802Z,6.90
2022-09-29T03:45:28.186Z,6.70
2022-09-29T03:46:29.559Z,7.50
2022-09-29T03:47:30.880Z,6.77
2022-09-29T03:48:34.942Z,7.20
2022-09-29T03:49:36.399Z,7.47
2022-09-29T03:50:37.673Z,7.50
2022-09-29T03:51:39.288Z,7.13
2022-09-29T03:52:40.588Z,7.40
2022-09-29T03:53:41.897Z,6.90
2022-09-29T03:54:43.201Z,7.33
2022-09-29T03:55:48.282Z,7.33
2022-09-29T03:56:49.694Z,6.77
2022-09-29T03:57:50.978Z,7.17
2022-09-29T03:58:52.321Z,7.43
2022-09-29T03:59:53.777Z,6.97
2022-09-29T04:00:55.171Z,7.37
2022-09-29T04:01:56.719Z,6.63
2022-09-29T04:02:58.669Z,6.67
2022-09-29T04:04:00.054Z,6.37
2022-09-29T04:05:01.368Z,6.80
2022-09-29T04:06:02.753Z,7.13
2022-09-29T04:07:04.085Z,6.50
2022-09-29T04:08:05.846Z,6.87
2022-09-29T04:09:07.142Z,6.43
2022-09-29T04:10:08.654Z,6.70
2022-09-29T04:11:09.978Z,6.87
2022-09-29T04:12:11.405Z,6.70
2022-09-29T04:13:16.516Z,6.53
2022-09-29T04:14:20.577Z,6.17
2022-09-29T04:15:21.885Z,6.37
2022-09-29T04:16:23.269Z,6.10
2022-09-29T04:17:24.812Z,6.43
2022-09-29T04:18:26.190Z,6.07
2022-09-29T04:19:27.522Z,6.27
2022-09-29T04:20:28.966Z,6.10
2022-09-29T04:21:30.349Z,5.93
2022-09-29T04:22:31.643Z,6.50
2022-09-29T04:23:33.224Z,6.17
2022-09-29T04:24:34.650Z,6.63
2022-09-29T04:25:35.945Z,7.00
2022-09-29T04:26:37.230Z,6.90
2022-09-29T04:27:38.849Z,6.70
2022-09-29T04:28:40.509Z,6.63
2022-09-29T04:29:41.845Z,6.33
2022-09-29T04:30:43.249Z,6.67
2022-09-29T04:31:44.649Z,6.07
2022-09-29T04:32:45.995Z,6.47
2022-09-29T04:33:47.321Z,6.13
2022-09-29T04:34:48.634Z,6.47
2022-09-29T04:35:49.907Z,6.17
2022-09-29T04:36:51.180Z,6.60
2022-09-29T04:37:57.376Z,6.33
2022-09-29T04:38:58.750Z,6.57
2022-09-29T04:40:00.166Z,6.63
2022-09-29T04:41:01.625Z,6.03
2022-09-29T04:42:02.944Z,6.50
2022-09-29T04:43:04.483Z,6.13
2022-09-29T04:44:06.146Z,5.93
2022-09-29T04:45:07.661Z,7.17
2022-09-29T04:46:09.284Z,6.47
2022-09-29T04:47:10.599Z,5.77
2022-09-29T04:48:11.963Z,6.40
2022-09-29T04:49:13.265Z,6.10
2022-09-29T04:50:14.537Z,6.17
2022-09-29T04:51:15.860Z,5.90
2022-09-29T04:52:17.214Z,6.73
2022-09-29T04:53:18.683Z,6.30
2022-09-29T04:54:20.081Z,6.27
2022-09-29T04:55:24.325Z,5.47
2022-09-29T04:56:26.020Z,6.17
2022-09-29T04:57:27.332Z,6.10
2022-09-29T04:58:28.618Z,6.37
2022-09-29T04:59:29.982Z,6.20
2022-09-29T05:00:32.690Z,6.50
2022-09-29T05:01:34.249Z,5.90
2022-09-29T05:02:36.172Z,6.23
2022-09-29T05:03:37.522Z,6.60
2022-09-29T05:04:38.884Z,6.87
2022-09-29T05:05:40.244Z,7.23
2022-09-29T05:06:41.620Z,7.77
2022-09-29T05:07:44.421Z,7.70
2022-09-29T05:08:45.781Z,7.47
2022-09-29T05:09:47.277Z,8.43
2022-09-29T05:10:51.149Z,8.50
2022-09-29T05:11:52.484Z,9.43
2022-09-29T05:12:53.908Z,8.13
2022-09-29T05:13:55.213Z,9.03
2022-09-29T05:14:56.512Z,9.90
2022-09-29T05:15:58.063Z,9.53
2022-09-29T05:16:59.652Z,9.87
2022-09-29T05:18:01.496Z,10.50
2022-09-29T05:19:02.984Z,9.83
2022-09-29T05:20:04.498Z,10.83
2022-09-29T05:22:28.050Z,10.77
2022-09-29T05:23:29.368Z,10.53
2022-09-29T05:24:30.764Z,11.07
2022-09-29T05:25:35.752Z,10.60
2022-09-29T05:26:37.083Z,10.50
2022-09-29T05:27:38.410Z,10.83
2022-09-29T05:28:43.226Z,10.83
2022-09-29T05:29:44.530Z,11.33
2022-09-29T05:30:45.841Z,10.73
2022-09-29T05:31:47.176Z,10.13
2022-09-29T05:32:48.541Z,10.33
2022-09-29T05:33:49.853Z,10.87
2022-09-29T05:34:51.165Z,9.50
2022-09-29T05:35:52.445Z,10.40
2022-09-29T05:36:53.717Z,10.93
2022-09-29T05:37:55.067Z,10.57
2022-09-29T05:38:56.644Z,10.63
2022-09-29T05:39:58.009Z,10.77
2022-09-29T05:41:04.153Z,9.93
2022-09-29T05:42:06.412Z,9.73
2022-09-29T05:43:07.734Z,9.10
2022-09-29T05:44:09.108Z,9.80
2022-09-29T05:45:11.777Z,9.10
2022-09-29T05:46:13.131Z,9.07
2022-09-29T05:47:14.701Z,9.07
2022-09-29T05:48:16.022Z,8.90
2022-09-29T05:49:19.432Z,8.80
2022-09-29T05:50:21.096Z,9.40
2022-09-29T05:51:23.468Z,10.07
2022-09-29T05:52:25.624Z,10.40
2022-09-29T05:53:27.040Z,10.53
2022-09-29T05:54:28.403Z,10.47
2022-09-29T05:55:29.926Z,11.43
2022-09-29T05:56:31.221Z,11.17
2022-09-29T05:57:32.684Z,10.93
2022-09-29T05:58:34.193Z,11.07
2022-09-29T05:59:35.868Z,10.80
2022-09-29T06:00:37.397Z,11.13
2022-09-29T06:01:38.769Z,11.37
2022-09-29T06:02:40.216Z,12.60
2022-09-29T06:03:41.650Z,11.83
2022-09-29T06:04:45.473Z,12.00
2022-09-29T06:05:47.303Z,11.33
2022-09-29T06:06:48.977Z,12.40
2022-09-29T06:07:50.357Z,12.47
2022-09-29T06:08:52.142Z,12.87
2022-09-29T06:09:53.484Z,11.50
2022-09-29T06:10:54.785Z,12.40
2022-09-29T06:11:56.366Z,12.70
2022-09-29T06:12:57.706Z,12.03
2022-09-29T06:13:59.301Z,12.73
2022-09-29T06:15:00.645Z,12.30
2022-09-29T06:16:02.168Z,12.10
2022-09-29T06:17:03.472Z,11.83
2022-09-29T06:18:04.872Z,12.10
2022-09-29T06:19:06.198Z,12.67
2022-09-29T06:20:10.166Z,12.33
2022-09-29T06:21:19.022Z,12.20
2022-09-29T06:22:20.319Z,12.83
2022-09-29T06:23:21.625Z,11.30
2022-09-29T06:24:22.957Z,12.73
2022-09-29T06:25:24.264Z,11.27
2022-09-29T06:26:26.637Z,11.60
2022-09-29T06:27:27.961Z,10.97
2022-09-29T06:28:29.461Z,10.53
2022-09-29T06:29:30.932Z,9.60
2022-09-29T06:30:32.266Z,10.27
2022-09-29T06:31:34.110Z,10.40
2022-09-29T06:32:35.917Z,9.40
2022-09-29T06:33:37.740Z,8.93
2022-09-29T06:34:59.123Z,9.33
2022-09-29T06:36:20.776Z,9.50
2022-09-29T06:37:37.273Z,9.40
2022-09-29T06:38:38.751Z,10.10
2022-09-29T06:39:40.151Z,9.23
2022-09-29T06:40:41.505Z,10.33
2022-09-29T06:41:48.610Z,9.73
2022-09-29T06:42:50.152Z,9.90
2022-09-29T06:43:51.441Z,9.70
2022-09-29T06:44:53.160Z,9.67
2022-09-29T06:45:54.492Z,9.40
2022-09-29T06:46:56.200Z,9.07
2022-09-29T06:47:58.119Z,9.40
2022-09-29T06:48:59.401Z,9.90
2022-09-29T06:50:08.267Z,9.43
2022-09-29T06:51:22.639Z,9.30
2022-09-29T06:52:27.819Z,9.73
2022-09-29T06:53:37.303Z,8.27
2022-09-29T06:54:39.579Z,8.90
2022-09-29T06:55:41.151Z,9.13
2022-09-29T06:56:42.840Z,8.90
2022-09-29T06:57:45.670Z,8.53
2022-09-29T06:58:47.228Z,8.30
2022-09-29T06:59:48.636Z,9.07
2022-09-29T07:00:50.883Z,7.83
2022-09-29T07:01:52.484Z,8.67
2022-09-29T07:02:54.750Z,7.97
2022-09-29T07:03:56.630Z,7.80
2022-09-29T07:04:57.978Z,7.83
2022-09-29T07:06:20.313Z,7.60
2022-09-29T07:07:22.053Z,7.83
2022-09-29T07:08:23.312Z,8.63
2022-09-29T07:09:24.760Z,7.27
2022-09-29T07:10:26.062Z,7.27
2022-09-29T07:11:27.837Z,8.07
2022-09-29T07:12:29.249Z,7.93
2022-09-29T07:13:54.938Z,7.97
2022-09-29T07:14:57.882Z,7.27
2022-09-29T07:16:06.933Z,7.20
2022-09-29T07:17:09.141Z,6.90
2022-09-29T07:18:10.465Z,7.33
2022-09-29T07:19:11.915Z,7.17
2022-09-29T07:20:13.408Z,7.57
2022-09-29T07:21:18.648Z,7.20
2022-09-29T07:22:20.143Z,7.37
2022-09-29T07:23:21.425Z,7.60
2022-09-29T07:24:24.713Z,7.40
2022-09-29T07:25:49.952Z,8.67
2022-09-29T07:26:47.317Z,7.10
2022-09-29T07:27:49.279Z,6.77
2022-09-29T07:28:50.639Z,7.60
2022-09-29T07:30:01.360Z,7.40
2022-09-29T07:31:14.518Z,6.83
2022-09-29T07:32:26.963Z,6.43
2022-09-29T07:33:38.538Z,6.20
2022-09-29T07:34:40.434Z,5.90
2022-09-29T07:35:41.754Z,6.77
2022-09-29T07:36:43.101Z,7.03
2022-09-29T07:37:50.629Z,6.97
2022-09-29T07:38:52.005Z,6.53
2022-09-29T07:39:53.869Z,6.40
2022-09-29T07:40:55.585Z,5.60
2022-09-29T07:41:58.627Z,5.50
2022-09-29T07:42:59.987Z,5.80
2022-09-29T07:44:01.423Z,5.80
2022-09-29T07:45:02.720Z,5.23
2022-09-29T07:46:04.740Z,5.27
2022-09-29T07:47:06.117Z,5.63
2022-09-29T07:48:07.382Z,5.50
2022-09-29T07:49:08.723Z,5.50
2022-09-29T07:50:10.369Z,6.07
2022-09-29T07:51:13.936Z,5.20
2022-09-29T07:52:15.363Z,5.63
2022-09-29T07:53:16.637Z,5.77
2022-09-29T07:54:17.988Z,5.23
2022-09-29T07:55:21.186Z,5.27
2022-09-29T07:56:22.803Z,5.17
2022-09-29T07:57:24.213Z,4.90
2022-09-29T07:58:25.508Z,5.37
2022-09-29T07:59:27.268Z,5.30
2022-09-29T08:00:30.986Z,5.43
2022-09-29T08:01:33.078Z,5.60
2022-09-29T08:02:34.560Z,4.93
2022-09-29T08:03:47.120Z,6.00
2022-09-29T08:04:48.408Z,5.57
2022-09-29T08:05:49.777Z,5.33
2022-09-29T08:06:51.291Z,5.03
2022-09-29T08:07:52.974Z,5.23
2022-09-29T08:09:03.479Z,4.90
2022-09-29T08:10:16.197Z,5.20
2022-09-29T08:11:29.731Z,5.30
2022-09-29T08:12:41.019Z,5.03
2022-09-29T08:13:45.378Z,5.17
2022-09-29T08:14:46.790Z,5.53
2022-09-29T08:15:48.129Z,5.10
2022-09-29T08:16:49.639Z,5.30
2022-09-29T08:17:54.815Z,5.17
2022-09-29T08:18:56.158Z,5.50
2022-09-29T08:19:57.483Z,5.40
2022-09-29T08:21:01.410Z,5.60
2022-09-29T08:22:05.115Z,5.30
2022-09-29T08:23:06.863Z,5.33
2022-09-29T08:24:08.246Z,5.50
2022-09-29T08:25:09.605Z,5.50
2022-09-29T08:26:18.918Z,5.53
2022-09-29T08:27:21.188Z,5.20
2022-09-29T08:28:31.054Z,5.40
2022-09-29T08:29:44.948Z,5.50
2022-09-29T08:30:47.869Z,5.60
2022-09-29T08:31:49.335Z,5.60
2022-09-29T08:32:51.376Z,5.90
2022-09-29T08:33:52.734Z,6.10
2022-09-29T08:34:54.387Z,5.67
2022-09-29T08:35:57.084Z,5.23
2022-09-29T08:36:58.396Z,7.93
2022-09-29T08:37:59.734Z,6.67
2022-09-29T08:39:01.103Z,6.10
2022-09-29T08:40:02.570Z,5.70
2022-09-29T08:41:05.745Z,5.80
2022-09-29T08:42:07.192Z,6.40
2022-09-29T08:43:22.874Z,5.80
2022-09-29T08:44:39.263Z,6.17
2022-09-29T08:45:58.301Z,5.00
2022-09-29T08:47:23.615Z,5.37
2022-09-29T08:48:26.604Z,5.20
2022-09-29T08:49:37.760Z,5.17
2022-09-29T08:50:42.602Z,5.60
2022-09-29T08:51:48.621Z,5.10
2022-09-29T08:53:02.608Z,5.43
2022-09-29T08:54:07.976Z,5.27
2022-09-29T08:55:21.568Z,5.27
2022-09-29T08:56:24.923Z,5.47
2022-09-29T08:57:26.765Z,4.97
2022-09-29T08:58:28.773Z,5.00
2022-09-29T08:59:30.835Z,5.17
2022-09-29T09:00:41.718Z,5.20
2022-09-29T09:01:50.179Z,4.87
2022-09-29T09:03:10.313Z,4.80
2022-09-29T09:04:15.725Z,5.53
2022-09-29T09:05:36.095Z,5.20
2022-09-29T09:06:37.389Z,6.30
2022-09-29T09:07:39.223Z,6.80
2022-09-29T09:08:46.790Z,5.47
2022-09-29T09:09:55.909Z,5.17
2022-09-29T09:11:06.004Z,4.67
2022-09-29T09:12:15.941Z,4.70
2022-09-29T09:13:37.430Z,4.33
2022-09-29T09:14:41.847Z,4.70
2022-09-29T09:15:54.066Z,4.77
2022-09-29T09:17:16.004Z,5.77
2022-09-29T09:18:26.209Z,5.10
2022-09-29T09:19:36.466Z,5.00
2022-09-29T09:20:44.095Z,5.00
2022-09-29T09:21:58.763Z,4.97
2022-09-29T09:23:01.320Z,4.50
2022-09-29T09:24:14.529Z,4.60
2022-09-29T09:25:35.279Z,5.10
2022-09-29T09:26:39.853Z,4.70
2022-09-29T09:27:44.560Z,4.60
2022-09-29T09:28:49.595Z,5.40
2022-09-29T09:30:01.221Z,4.70
2022-09-29T09:31:02.575Z,4.60
2022-09-29T09:32:16.317Z,4.90
2022-09-29T09:33:31.821Z,4.23
2022-09-29T09:35:15.271Z,5.20
2022-09-29T09:36:34.158Z,4.40
2022-09-29T09:37:39.317Z,4.50
2022-09-29T09:38:47.517Z,5.17
2022-09-29T09:39:53.368Z,4.60
2022-09-29T09:40:56.437Z,4.40
2022-09-29T09:41:59.209Z,5.00
2022-09-29T09:43:04.569Z,4.90
2022-09-29T09:44:10.742Z,4.70
2022-09-29T09:45:23.565Z,5.37
2022-09-29T09:46:34.477Z,5.20
2022-09-29T09:47:42.212Z,5.20
2022-09-29T09:48:53.537Z,4.10
2022-09-29T09:50:00.167Z,4.70
2022-09-29T09:51:21.428Z,5.40
2022-09-29T09:52:24.888Z,4.57
2022-09-29T09:53:34.376Z,4.80
2022-09-29T09:54:38.352Z,4.50
2022-09-29T09:55:40.391Z,4.70
2022-09-29T09:56:49.473Z,4.50
2022-09-29T09:58:09.750Z,4.53
2022-09-29T09:59:23.303Z,4.63
2022-09-29T10:00:41.156Z,4.33
2022-09-29T10:01:42.661Z,4.80
2022-09-29T10:02:48.248Z,4.47
2022-09-29T10:03:49.657Z,4.23
2022-09-29T10:04:52.605Z,4.13
2022-09-29T10:05:54.132Z,4.50
2022-09-29T10:06:55.832Z,4.67
2022-09-29T10:07:58.056Z,4.33
2022-09-29T10:08:59.457Z,4.40
2022-09-29T10:10:03.035Z,4.30
2022-09-29T10:11:05.626Z,4.87
2022-09-29T10:12:09.976Z,4.43
2022-09-29T10:13:12.985Z,4.53
2022-09-29T10:14:16.636Z,4.13
2022-09-29T10:15:20.508Z,4.30
2022-09-29T10:16:25.640Z,4.40
2022-09-29T10:17:30.216Z,4.10
2022-09-29T10:18:31.581Z,4.00
2022-09-29T10:19:51.477Z,4.40
2022-09-29T10:20:52.819Z,4.17
2022-09-29T10:21:54.180Z,3.93
2022-09-29T10:23:03.740Z,3.73
2022-09-29T10:24:08.087Z,3.90
2022-09-29T10:25:12.128Z,3.97
2022-09-29T10:26:16.627Z,11.17
2022-09-29T10:27:20.118Z,5.03
2022-09-29T10:28:22.377Z,4.27
2022-09-29T10:29:29.474Z,4.43
2022-09-29T10:30:35.242Z,4.40
2022-09-29T10:31:36.636Z,4.10
2022-09-29T10:32:37.959Z,3.80
2022-09-29T10:33:46.326Z,4.23
2022-09-29T10:34:49.860Z,4.27
2022-09-29T10:36:02.718Z,4.40
2022-09-29T10:37:05.576Z,4.73
2022-09-29T10:38:14.921Z,4.80
2022-09-29T10:39:32.757Z,4.83
2022-09-29T10:40:35.546Z,5.33
2022-09-29T10:41:55.041Z,5.40
2022-09-29T10:42:57.005Z,4.80
2022-09-29T10:44:13.832Z,4.50
2022-09-29T10:45:29.144Z,4.67
2022-09-29T10:46:30.504Z,4.70
2022-09-29T10:47:34.006Z,4.97
2022-09-29T10:48:35.340Z,4.77
2022-09-29T10:49:36.613Z,4.83
2022-09-29T10:50:48.764Z,4.80
2022-09-29T10:52:04.212Z,5.00
2022-09-29T10:53:08.995Z,4.93
2022-09-29T10:54:16.232Z,5.00
2022-09-29T10:55:19.329Z,4.97
2022-09-29T10:56:22.399Z,5.03
2022-09-29T10:57:25.849Z,4.60
2022-09-29T10:58:53.207Z,5.10
2022-09-29T10:59:57.255Z,4.47
2022-09-29T11:01:03.085Z,5.03
2022-09-29T11:02:04.692Z,4.60
2022-09-29T11:03:17.262Z,5.27
2022-09-29T11:04:34.447Z,5.00
2022-09-29T11:05:36.787Z,4.63
2022-09-29T11:06:43.574Z,4.87
2022-09-29T11:07:46.787Z,4.90
2022-09-29T11:09:15.645Z,4.80
2022-09-29T11:10:31.007Z,5.07
2022-09-29T11:11:34.154Z,4.70
2022-09-29T11:12:38.859Z,5.00
2022-09-29T11:13:40.392Z,5.17
2022-09-29T11:14:42.287Z,5.47
2022-09-29T11:15:43.666Z,5.63
2022-09-29T11:16:53.310Z,5.47
2022-09-29T11:17:55.940Z,5.47
2022-09-29T11:19:00.577Z,5.63
2022-09-29T11:20:03.878Z,5.30
2022-09-29T11:21:12.149Z,5.10
2022-09-29T11:22:13.441Z,4.80
2022-09-29T11:23:20.113Z,5.87
2022-09-29T11:24:48.071Z,5.00
2022-09-29T11:26:07.815Z,4.73
2022-09-29T11:27:29.383Z,5.27
2022-09-29T11:28:30.747Z,5.47
2022-09-29T11:29:32.413Z,5.80
2022-09-29T11:30:53.733Z,6.00
2022-09-29T11:32:01.168Z,5.10
2022-09-29T11:33:20.344Z,5.53
2022-09-29T11:34:39.988Z,5.87
2022-09-29T11:35:44.979Z,5.70
2022-09-29T11:36:46.234Z,5.33
2022-09-29T11:37:47.541Z,5.23
2022-09-29T11:38:54.361Z,5.00
2022-09-29T11:40:01.300Z,4.93
2022-09-29T11:41:05.403Z,4.90
2022-09-29T11:42:34.244Z,4.43
2022-09-29T11:43:47.484Z,4.70
2022-09-29T11:44:58.210Z,5.33
2022-09-29T11:46:21.190Z,4.90
2022-09-29T11:47:41.346Z,4.87
2022-09-29T11:48:54.043Z,4.90
2022-09-29T11:50:07.472Z,4.27
2022-09-29T11:51:14.116Z,4.83
2022-09-29T11:52:15.580Z,4.23
2022-09-29T11:53:41.225Z,4.43
2022-09-29T11:54:47.700Z,4.80
2022-09-29T11:55:53.191Z,4.27
2022-09-29T11:56:58.869Z,4.17
2022-09-29T11:58:02.971Z,4.40
2022-09-29T11:59:15.219Z,4.53
2022-09-29T12:00:18.516Z,4.23
2022-09-29T12:01:26.317Z,4.17
2022-09-29T12:02:30.469Z,4.37
2022-09-29T12:03:47.103Z,5.20
2022-09-29T12:04:54.989Z,5.00
2022-09-29T12:05:56.556Z,4.27
2022-09-29T12:07:24.274Z,4.93
2022-09-29T12:08:31.632Z,5.00
2022-09-29T12:10:02.452Z,4.83
2022-09-29T12:11:40.365Z,4.73
2022-09-29T12:12:37.051Z,4.57
2022-09-29T12:13:57.231Z,3.90
2022-09-29T12:15:12.922Z,4.40
2022-09-29T12:16:16.846Z,4.40
2022-09-29T12:17:18.861Z,4.43
2022-09-29T12:18:29.741Z,4.60
2022-09-29T12:19:33.534Z,3.77
2022-09-29T12:20:41.083Z,3.87
2022-09-29T12:21:45.237Z,4.03
2022-09-29T12:22:48.166Z,4.27
2022-09-29T12:23:49.699Z,4.30
2022-09-29T12:24:53.565Z,4.50
2022-09-29T12:25:57.844Z,4.30
2022-09-29T12:26:59.956Z,4.60
2022-09-29T12:28:05.480Z,5.00
2022-09-29T12:29:11.234Z,5.07
2022-09-29T12:30:18.428Z,5.00
2022-09-29T12:31:29.897Z,4.70
2022-09-29T12:32:33.936Z,4.00
2022-09-29T12:33:37.975Z,4.30
2022-09-29T12:34:45.714Z,3.80
2022-09-29T12:36:04.069Z,4.30
2022-09-29T12:37:07.642Z,4.07
2022-09-29T12:38:12.589Z,4.00
2022-09-29T12:39:33.114Z,3.50
2022-09-29T12:40:38.771Z,3.40
2022-09-29T12:41:43.360Z,3.70
2022-09-29T12:43:03.071Z,3.83
2022-09-29T12:44:23.406Z,3.67
2022-09-29T12:45:35.320Z,4.63
2022-09-29T12:46:39.184Z,4.10
2022-09-29T12:47:43.300Z,3.80
2022-09-29T12:48:56.524Z,4.00
2022-09-29T12:50:03.734Z,3.40
2022-09-29T12:51:05.432Z,4.10
2022-09-29T12:52:14.935Z,4.03
2022-09-29T12:53:22.103Z,3.83
2022-09-29T12:54:39.879Z,3.60
2022-09-29T12:55:41.213Z,3.73
2022-09-29T12:56:48.633Z,3.80
2022-09-29T12:57:51.307Z,4.10
2022-09-29T12:59:04.492Z,4.37
2022-09-29T13:00:15.962Z,3.90
2022-09-29T13:01:22.223Z,4.37
2022-09-29T13:02:26.549Z,4.30
2022-09-29T13:03:33.766Z,4.10
2022-09-29T13:04:54.421Z,3.90
2022-09-29T13:06:11.088Z,3.80
2022-09-29T13:07:15.469Z,3.90
2022-09-29T13:08:39.910Z,3.90
2022-09-29T13:09:58.079Z,3.60
2022-09-29T13:11:18.405Z,3.43
2022-09-29T13:12:38.018Z,3.30
2022-09-29T13:14:12.021Z,3.87
2022-09-29T13:15:13.313Z,3.17
2022-09-29T13:16:17.457Z,3.40
2022-09-29T13:17:27.849Z,2.90
2022-09-29T13:18:31.958Z,3.33
2022-09-29T13:19:56.246Z,2.73
2022-09-29T13:21:03.732Z,2.83
2022-09-29T13:22:24.084Z,2.90
2022-09-29T13:23:31.583Z,3.10
2022-09-29T13:24:43.415Z,3.63
2022-09-29T13:25:51.465Z,3.30
2022-09-29T13:26:58.812Z,3.10
2022-09-29T13:28:00.330Z,3.50
2022-09-29T13:29:10.661Z,2.97
2022-09-29T13:30:12.850Z,3.13
2022-09-29T13:31:16.290Z,3.40
2022-09-29T13:32:18.067Z,3.40
2022-09-29T13:33:20.979Z,3.87
2022-09-29T13:34:32.789Z,3.40
2022-09-29T13:35:42.516Z,3.60
2022-09-29T13:36:45.379Z,3.40
2022-09-29T13:37:54.622Z,3.33
2022-09-29T13:38:58.323Z,3.23
2022-09-29T13:40:02.787Z,3.20
2022-09-29T13:41:15.228Z,3.40
2022-09-29T13:42:34.953Z,3.17
2022-09-29T13:43:37.364Z,2.90
2022-09-29T13:44:38.900Z,2.73
2022-09-29T13:45:41.322Z,4.70
2022-09-29T13:46:43.123Z,3.90
2022-09-29T13:47:45.806Z,3.73
2022-09-29T13:48:53.303Z,3.20
2022-09-29T13:50:01.233Z,3.30
2022-09-29T13:51:22.528Z,3.00
2022-09-29T13:52:31.228Z,3.13
2022-09-29T13:53:37.438Z,3.30
2022-09-29T13:54:40.103Z,3.60
2022-09-29T13:55:50.631Z,3.73
2022-09-29T13:56:58.619Z,3.80
2022-09-29T13:57:59.892Z,3.07
2022-09-29T13:59:01.852Z,3.17
2022-09-29T14:00:16.179Z,3.00
2022-09-29T14:01:30.068Z,3.03
2022-09-29T14:02:36.897Z,3.33
2022-09-29T14:03:39.240Z,2.80
2022-09-29T14:04:49.867Z,3.27
2022-09-29T14:05:55.582Z,3.87
2022-09-29T14:06:58.900Z,3.20
2022-09-29T14:08:20.757Z,2.80
2022-09-29T14:09:31.747Z,3.20
2022-09-29T14:10:35.964Z,3.30
2022-09-29T14:11:42.777Z,3.20
2022-09-29T14:12:45.016Z,3.23
2022-09-29T14:13:54.058Z,2.70
2022-09-29T14:14:57.134Z,3.37
2022-09-29T14:16:20.464Z,3.30
2022-09-29T14:17:29.842Z,3.40
2022-09-29T14:18:43.238Z,3.50
2022-09-29T14:20:03.253Z,3.27
2022-09-29T14:21:06.507Z,3.00
2022-09-29T14:22:31.219Z,2.80
2022-09-29T14:23:44.386Z,3.10
2022-09-29T14:24:49.475Z,3.17
2022-09-29T14:25:53.901Z,3.30
2022-09-29T14:27:13.924Z,4.20
2022-09-29T14:28:19.427Z,3.90
2022-09-29T14:29:24.176Z,3.37